Wetterdaten: aktuell Donnerstag, 01.06.2023 18:20
Datum Zeit Temp. A. Feuchte A. Luftdruck Regen Wind Richtung Richtung Taupunkt Windchill Windben
01.06.2023 18:20 19,8 C 46 % 1015,8 hPa 0,0 l/m 4,0 km/h (1 Bft) N 360 7,8 C 19,8 C 9,7 km/h (2 Bft)
01.06.2023 18:15 19,6 C 46 % 1015,8 hPa 0,0 l/m 4,2 km/h (1 Bft) SW 219 7,7 C 19,6 C 9,7 km/h (2 Bft)
01.06.2023 18:10 19,6 C 47 % 1015,8 hPa 0,0 l/m 5,8 km/h (2 Bft) NO 53 8,0 C 19,6 C 17,7 km/h (3 Bft)
01.06.2023 18:05 19,8 C 45 % 1015,8 hPa 0,0 l/m 4,7 km/h (1 Bft) NO 44 7,5 C 19,8 C 17,7 km/h (3 Bft)
01.06.2023 18:00 19,9 C 45 % 1015,9 hPa 0,0 l/m 4,2 km/h (1 Bft) N-NO 32 7,6 C 19,9 C 16,1 km/h (3 Bft)
01.06.2023 17:55 19,8 C 45 % 1015,9 hPa 0,0 l/m 5,3 km/h (1 Bft) N 360 7,5 C 19,8 C 14,5 km/h (3 Bft)
01.06.2023 17:50 19,8 C 45 % 1015,8 hPa 0,0 l/m 3,4 km/h (1 Bft) W 275 7,5 C 19,8 C 14,5 km/h (3 Bft)
01.06.2023 17:45 19,7 C 47 % 1015,9 hPa 0,0 l/m 3,2 km/h (1 Bft) N-NO 13 8,1 C 19,7 C 14,5 km/h (3 Bft)
01.06.2023 17:40 19,8 C 47 % 1015,9 hPa 0,0 l/m 3,3 km/h (1 Bft) W 275 8,2 C 19,8 C 16,1 km/h (3 Bft)
01.06.2023 17:35 19,9 C 46 % 1015,9 hPa 0,0 l/m 3,1 km/h (1 Bft) N-NW 329 7,9 C 19,9 C 11,3 km/h (2 Bft)
01.06.2023 17:30 19,9 C 47 % 1015,9 hPa 0,0 l/m 5,8 km/h (2 Bft) W-SW 257 8,3 C 19,9 C 22,5 km/h (4 Bft)
01.06.2023 17:25 20,0 C 47 % 1015,9 hPa 0,0 l/m 5,2 km/h (1 Bft) W-NW 298 8,3 C 20,0 C 17,7 km/h (3 Bft)
01.06.2023 17:20 20,1 C 47 % 1016,0 hPa 0,0 l/m 4,1 km/h (1 Bft) O-NO 76 8,4 C 20,1 C 11,3 km/h (2 Bft)
01.06.2023 17:15 20,1 C 47 % 1016,1 hPa 0,0 l/m 3,8 km/h (1 Bft) W 268 8,4 C 20,1 C 9,7 km/h (2 Bft)
01.06.2023 17:10 20,2 C 47 % 1016,1 hPa 0,0 l/m 3,9 km/h (1 Bft) NW 323 8,5 C 20,2 C 8,0 km/h (2 Bft)
01.06.2023 17:05 20,3 C 44 % 1016,2 hPa 0,0 l/m 5,3 km/h (1 Bft) N-NW 336 7,6 C 20,3 C 16,1 km/h (3 Bft)
01.06.2023 17:00 20,3 C 48 % 1016,2 hPa 0,0 l/m 4,1 km/h (1 Bft) SW 236 8,9 C 20,3 C 12,9 km/h (3 Bft)
01.06.2023 16:55 20,1 C 46 % 1016,3 hPa 0,0 l/m 2,7 km/h (1 Bft) S 171 8,1 C 20,1 C 8,0 km/h (2 Bft)
01.06.2023 16:50 20,0 C 46 % 1016,3 hPa 0,0 l/m 6,3 km/h (2 Bft) N 5 8,0 C 20,0 C 16,1 km/h (3 Bft)
01.06.2023 16:45 20,2 C 48 % 1016,3 hPa 0,0 l/m 4,0 km/h (1 Bft) NW 324 8,8 C 20,2 C 11,3 km/h (2 Bft)
01.06.2023 16:40 20,0 C 46 % 1016,4 hPa 0,0 l/m 5,7 km/h (1 Bft) NW 323 8,0 C 20,0 C 16,1 km/h (3 Bft)
01.06.2023 16:35 20,1 C 45 % 1016,4 hPa 0,0 l/m 4,8 km/h (1 Bft) W 265 7,8 C 20,1 C 17,7 km/h (3 Bft)
01.06.2023 16:30 20,0 C 46 % 1016,4 hPa 0,0 l/m 5,2 km/h (1 Bft) N-NW 329 8,0 C 20,0 C 14,5 km/h (3 Bft)
01.06.2023 16:25 19,7 C 47 % 1016,5 hPa 0,0 l/m 6,8 km/h (2 Bft) W-NW 297 8,1 C 19,5 C 16,1 km/h (3 Bft)
01.06.2023 16:20 19,9 C 47 % 1016,5 hPa 0,0 l/m 5,1 km/h (1 Bft) N-NW 344 8,3 C 19,9 C 14,5 km/h (3 Bft)
01.06.2023 16:15 20,1 C 45 % 1016,5 hPa 0,0 l/m 4,2 km/h (1 Bft) W 274 7,8 C 20,1 C 9,7 km/h (2 Bft)
01.06.2023 16:10 20,4 C 43 % 1016,5 hPa 0,0 l/m 4,4 km/h (1 Bft) NW 321 7,4 C 20,4 C 14,5 km/h (3 Bft)
01.06.2023 16:05 20,3 C 45 % 1016,6 hPa 0,0 l/m 4,7 km/h (1 Bft) N 360 8,0 C 20,3 C 14,5 km/h (3 Bft)
01.06.2023 16:00 20,2 C 45 % 1016,7 hPa 0,0 l/m 4,5 km/h (1 Bft) N-NO 17 7,9 C 20,2 C 19,3 km/h (3 Bft)
01.06.2023 15:55 20,1 C 45 % 1016,8 hPa 0,0 l/m 4,4 km/h (1 Bft) N 5 7,8 C 20,1 C 16,1 km/h (3 Bft)
01.06.2023 15:50 20,2 C 45 % 1016,8 hPa 0,0 l/m 5,0 km/h (1 Bft) S 174 7,9 C 20,2 C 17,7 km/h (3 Bft)
01.06.2023 15:45 20,3 C 43 % 1016,8 hPa 0,0 l/m 6,0 km/h (2 Bft) N-NO 15 7,3 C 20,3 C 22,5 km/h (4 Bft)
01.06.2023 15:40 20,1 C 45 % 1016,8 hPa 0,0 l/m 7,6 km/h (2 Bft) NW 320 7,8 C 19,6 C 20,9 km/h (4 Bft)
01.06.2023 15:35 19,4 C 44 % 1016,9 hPa 0,0 l/m 4,8 km/h (1 Bft) N-NO 19 6,8 C 19,4 C 12,9 km/h (3 Bft)
01.06.2023 15:30 19,6 C 43 % 1016,9 hPa 0,0 l/m 4,6 km/h (1 Bft) NO 53 6,7 C 19,6 C 12,9 km/h (3 Bft)
01.06.2023 15:25 19,7 C 45 % 1017,0 hPa 0,0 l/m 4,1 km/h (1 Bft) W 263 7,4 C 19,7 C 11,3 km/h (2 Bft)
01.06.2023 15:20 19,5 C 48 % 1017,1 hPa 0,0 l/m 6,9 km/h (2 Bft) W 276 8,2 C 19,3 C 17,7 km/h (3 Bft)
01.06.2023 15:15 19,6 C 44 % 1017,1 hPa 0,0 l/m 4,5 km/h (1 Bft) W-NW 290 7,0 C 19,6 C 11,3 km/h (2 Bft)
01.06.2023 15:10 20,1 C 42 % 1017,1 hPa 0,0 l/m 5,6 km/h (1 Bft) N-NO 22 6,8 C 20,1 C 16,1 km/h (3 Bft)
01.06.2023 15:05 20,7 C 43 % 1017,0 hPa 0,0 l/m 4,8 km/h (1 Bft) NW 309 7,7 C 20,7 C 14,5 km/h (3 Bft)
01.06.2023 15:00 20,7 C 43 % 1017,2 hPa 0,0 l/m 3,5 km/h (1 Bft) NW 321 7,7 C 20,7 C 8,0 km/h (2 Bft)
01.06.2023 14:55 20,5 C 44 % 1017,1 hPa 0,0 l/m 5,0 km/h (1 Bft) NW 326 7,8 C 20,5 C 9,7 km/h (2 Bft)
01.06.2023 14:50 20,3 C 47 % 1017,1 hPa 0,0 l/m 6,2 km/h (2 Bft) NO 49 8,6 C 20,3 C 14,5 km/h (3 Bft)
01.06.2023 14:45 20,0 C 47 % 1017,2 hPa 0,0 l/m 4,3 km/h (1 Bft) SW 217 8,3 C 20,0 C 9,7 km/h (2 Bft)
01.06.2023 14:40 19,6 C 46 % 1017,3 hPa 0,0 l/m 4,9 km/h (1 Bft) W 262 7,7 C 19,6 C 12,9 km/h (3 Bft)
01.06.2023 14:35 19,9 C 46 % 1017,3 hPa 0,0 l/m 7,9 km/h (2 Bft) N-NW 332 7,9 C 19,3 C 19,3 km/h (3 Bft)
01.06.2023 14:30 20,6 C 45 % 1017,3 hPa 0,0 l/m 8,2 km/h (2 Bft) O-NO 77 8,2 C 19,9 C 17,7 km/h (3 Bft)
01.06.2023 14:25 20,7 C 45 % 1017,4 hPa 0,0 l/m 5,3 km/h (1 Bft) N-NO 24 8,3 C 20,7 C 14,5 km/h (3 Bft)
01.06.2023 14:20 20,2 C 45 % 1017,4 hPa 0,0 l/m 4,7 km/h (1 Bft) W 279 7,9 C 20,2 C 11,3 km/h (2 Bft)
01.06.2023 14:15 20,4 C 44 % 1017,5 hPa 0,0 l/m 3,8 km/h (1 Bft) O-SO 105 7,7 C 20,4 C 11,3 km/h (2 Bft)
01.06.2023 14:10 19,9 C 44 % 1017,5 hPa 0,0 l/m 3,9 km/h (1 Bft) NO 46 7,3 C 19,9 C 12,9 km/h (3 Bft)
01.06.2023 14:05 19,3 C 44 % 1017,5 hPa 0,0 l/m 2,8 km/h (1 Bft) NO 45 6,7 C 19,3 C 6,4 km/h (2 Bft)
01.06.2023 14:00 19,4 C 43 % 1017,6 hPa 0,0 l/m 5,2 km/h (1 Bft) N 5 6,5 C 19,4 C 12,9 km/h (3 Bft)
01.06.2023 13:55 19,8 C 47 % 1017,6 hPa 0,0 l/m 5,2 km/h (1 Bft) N-NO 15 8,2 C 19,8 C 12,9 km/h (3 Bft)
01.06.2023 13:50 19,9 C 45 % 1017,7 hPa 0,0 l/m 8,1 km/h (2 Bft) N-NO 33 7,6 C 19,2 C 14,5 km/h (3 Bft)
01.06.2023 13:45 19,8 C 46 % 1017,7 hPa 0,0 l/m 5,0 km/h (1 Bft) NO 46 7,8 C 19,8 C 12,9 km/h (3 Bft)
01.06.2023 13:40 19,8 C 46 % 1017,7 hPa 0,0 l/m 4,9 km/h (1 Bft) N-NO 27 7,8 C 19,8 C 14,5 km/h (3 Bft)
01.06.2023 13:35 19,6 C 48 % 1017,8 hPa 0,0 l/m 4,1 km/h (1 Bft) O 93 8,3 C 19,6 C 11,3 km/h (2 Bft)
01.06.2023 13:30 19,4 C 48 % 1017,9 hPa 0,0 l/m 3,9 km/h (1 Bft) W-NW 294 8,1 C 19,4 C 12,9 km/h (3 Bft)
01.06.2023 13:25 19,2 C 48 % 1018,0 hPa 0,0 l/m 3,6 km/h (1 Bft) S-SW 210 7,9 C 19,2 C 8,0 km/h (2 Bft)
01.06.2023 13:20 19,3 C 43 % 1018,0 hPa 0,0 l/m 3,4 km/h (1 Bft) W 272 6,4 C 19,3 C 9,7 km/h (2 Bft)
01.06.2023 13:15 19,4 C 43 % 1018,0 hPa 0,0 l/m 3,9 km/h (1 Bft) NW 307 6,5 C 19,4 C 12,9 km/h (3 Bft)
01.06.2023 13:10 19,5 C 42 % 1018,1 hPa 0,0 l/m 4,0 km/h (1 Bft) O-SO 113 6,2 C 19,5 C 14,5 km/h (3 Bft)
01.06.2023 13:05 19,2 C 42 % 1018,2 hPa 0,0 l/m 3,7 km/h (1 Bft) W-SW 237 6,0 C 19,2 C 9,7 km/h (2 Bft)
01.06.2023 13:00 19,8 C 45 % 1018,2 hPa 0,0 l/m 3,6 km/h (1 Bft) W-NW 289 7,5 C 19,8 C 12,9 km/h (3 Bft)
01.06.2023 12:55 19,4 C 43 % 1018,2 hPa 0,0 l/m 6,5 km/h (2 Bft) NO 55 6,5 C 19,4 C 16,1 km/h (3 Bft)
01.06.2023 12:50 19,4 C 45 % 1018,3 hPa 0,0 l/m 5,0 km/h (1 Bft) NW 317 7,2 C 19,4 C 14,5 km/h (3 Bft)
01.06.2023 12:45 19,3 C 41 % 1018,2 hPa 0,0 l/m 4,5 km/h (1 Bft) N 350 5,7 C 19,3 C 17,7 km/h (3 Bft)
01.06.2023 12:40 19,3 C 46 % 1018,3 hPa 0,0 l/m 4,5 km/h (1 Bft) N 5 7,4 C 19,3 C 12,9 km/h (3 Bft)
01.06.2023 12:35 19,1 C 45 % 1018,3 hPa 0,0 l/m 3,6 km/h (1 Bft) O-NO 61 6,9 C 19,1 C 8,0 km/h (2 Bft)
01.06.2023 12:30 18,9 C 43 % 1018,4 hPa 0,0 l/m 6,4 km/h (2 Bft) N 11 6,0 C 18,9 C 12,9 km/h (3 Bft)
01.06.2023 12:25 18,7 C 45 % 1018,5 hPa 0,0 l/m 4,5 km/h (1 Bft) N-NO 24 6,5 C 18,7 C 16,1 km/h (3 Bft)
01.06.2023 12:20 18,7 C 44 % 1018,5 hPa 0,0 l/m 5,6 km/h (1 Bft) W-SW 248 6,2 C 18,7 C 16,1 km/h (3 Bft)
01.06.2023 12:15 18,6 C 48 % 1018,5 hPa 0,0 l/m 7,6 km/h (2 Bft) NO 42 7,4 C 18,1 C 16,1 km/h (3 Bft)
01.06.2023 12:10 18,8 C 49 % 1018,5 hPa 0,0 l/m 7,7 km/h (2 Bft) N 5 7,9 C 18,2 C 19,3 km/h (3 Bft)
01.06.2023 12:05 18,6 C 49 % 1018,6 hPa 0,0 l/m 7,3 km/h (2 Bft) NO 48 7,7 C 18,2 C 17,7 km/h (3 Bft)
01.06.2023 12:00 18,6 C 49 % 1018,7 hPa 0,0 l/m 5,2 km/h (1 Bft) NO 40 7,7 C 18,6 C 19,3 km/h (3 Bft)
01.06.2023 11:55 18,3 C 47 % 1018,6 hPa 0,0 l/m 6,3 km/h (2 Bft) NO 44 6,8 C 18,3 C 17,7 km/h (3 Bft)
01.06.2023 11:50 17,9 C 51 % 1018,6 hPa 0,0 l/m 4,8 km/h (1 Bft) N 355 7,6 C 17,9 C 16,1 km/h (3 Bft)
01.06.2023 11:45 17,7 C 51 % 1018,6 hPa 0,0 l/m 3,4 km/h (1 Bft) N 349 7,4 C 17,7 C 12,9 km/h (3 Bft)
01.06.2023 11:40 17,7 C 49 % 1018,7 hPa 0,0 l/m 5,0 km/h (1 Bft) N-NO 31 6,9 C 17,7 C 12,9 km/h (3 Bft)
01.06.2023 11:35 17,9 C 49 % 1018,6 hPa 0,0 l/m 6,3 km/h (2 Bft) N-NO 13 7,0 C 17,9 C 17,7 km/h (3 Bft)
01.06.2023 11:30 18,2 C 50 % 1018,6 hPa 0,0 l/m 6,0 km/h (2 Bft) W 277 7,6 C 18,2 C 14,5 km/h (3 Bft)
01.06.2023 11:25 18,3 C 50 % 1018,6 hPa 0,0 l/m 8,6 km/h (2 Bft) N 349 7,7 C 17,3 C 19,3 km/h (3 Bft)
01.06.2023 11:20 17,9 C 50 % 1018,6 hPa 0,0 l/m 5,7 km/h (1 Bft) N-NW 341 7,3 C 17,9 C 14,5 km/h (3 Bft)
01.06.2023 11:15 17,6 C 52 % 1018,7 hPa 0,0 l/m 3,1 km/h (1 Bft) S 180 7,6 C 17,6 C 6,4 km/h (2 Bft)
01.06.2023 11:10 17,9 C 51 % 1018,6 hPa 0,0 l/m 3,8 km/h (1 Bft) SO 131 7,6 C 17,9 C 14,5 km/h (3 Bft)
01.06.2023 11:05 17,9 C 51 % 1018,7 hPa 0,0 l/m 3,7 km/h (1 Bft) N-NO 26 7,6 C 17,9 C 11,3 km/h (2 Bft)
01.06.2023 11:00 17,9 C 50 % 1018,7 hPa 0,0 l/m 4,6 km/h (1 Bft) N-NO 20 7,3 C 17,9 C 12,9 km/h (3 Bft)
01.06.2023 10:55 18,2 C 51 % 1018,7 hPa 0,0 l/m 6,1 km/h (2 Bft) NW 317 7,9 C 18,2 C 14,5 km/h (3 Bft)
01.06.2023 10:50 17,9 C 50 % 1018,5 hPa 0,0 l/m 6,4 km/h (2 Bft) NO 36 7,3 C 17,9 C 14,5 km/h (3 Bft)
01.06.2023 10:45 17,8 C 51 % 1018,7 hPa 0,0 l/m 7,9 km/h (2 Bft) O-NO 59 7,5 C 17,1 C 17,7 km/h (3 Bft)
01.06.2023 10:40 17,8 C 52 % 1018,7 hPa 0,0 l/m 7,0 km/h (2 Bft) N-NO 27 7,8 C 17,5 C 16,1 km/h (3 Bft)
01.06.2023 10:35 17,9 C 49 % 1018,8 hPa 0,0 l/m 4,1 km/h (1 Bft) N-NW 344 7,0 C 17,9 C 8,0 km/h (2 Bft)
01.06.2023 10:30 17,8 C 52 % 1018,8 hPa 0,0 l/m 4,0 km/h (1 Bft) S-SW 202 7,8 C 17,8 C 12,9 km/h (3 Bft)
01.06.2023 10:25 17,4 C 51 % 1018,9 hPa 0,0 l/m 4,9 km/h (1 Bft) O-NO 58 7,2 C 17,4 C 11,3 km/h (2 Bft)
01.06.2023 10:20 17,5 C 53 % 1019,0 hPa 0,0 l/m 5,0 km/h (1 Bft) S 180 7,8 C 17,5 C 14,5 km/h (3 Bft)
01.06.2023 10:15 17,1 C 52 % 1019,0 hPa 0,0 l/m 4,6 km/h (1 Bft) NO 41 7,2 C 17,1 C 11,3 km/h (2 Bft)
01.06.2023 10:10 16,8 C 51 % 1019,0 hPa 0,0 l/m 3,2 km/h (1 Bft) O-NO 59 6,6 C 16,8 C 6,4 km/h (2 Bft)
01.06.2023 10:05 16,7 C 53 % 1019,0 hPa 0,0 l/m 3,1 km/h (1 Bft) W 279 7,1 C 16,7 C 6,4 km/h (2 Bft)
_ Min-Zeit 04:45 12:45 17:50 - 20:50 - - 04:45 04:45 20:50
Minimum _ 4,1 C 41 % 1015,8 hPa - 0,0 km/h (0 Bft) - - 3,1 C 4,1 C 0,0 km/h (0 Bft)
_ Max-Zeit 15:00 05:05 21:35 19:00 11:25 - - 08:10 14:25 15:45
Maximum _ 20,8 C 94 % 1022,0 hPa 0,0 l/m 8,6 km/h
N (2 Bft)
- - 10,0 C 20,7 C 22,5 km/h
N-NO (4 Bft)
Durchschnitt _ 13,1 C 65 % 1019,8 hPa #0,0 l/m 2,6 km/h (1 Bft) N-NO - 5,9 C 13,1 C 6,9 km/h (2 Bft)